createdAt,value
2023-02-05T00:02:17.505Z,61.04
2023-02-05T00:04:45.421Z,60.75
2023-02-05T00:07:13.349Z,60.99
2023-02-05T00:09:42.623Z,61.09
2023-02-05T00:12:10.571Z,61.15
2023-02-05T00:14:38.477Z,60.86
2023-02-05T00:17:06.364Z,60.87
2023-02-05T00:19:34.228Z,60.86
2023-02-05T00:22:02.071Z,61.11
2023-02-05T00:24:29.944Z,60.74
2023-02-05T00:26:59.085Z,60.62
2023-02-05T00:29:26.905Z,60.36
2023-02-05T00:31:54.896Z,60.00
2023-02-05T00:34:22.770Z,60.14
2023-02-05T00:36:50.701Z,59.67
2023-02-05T00:39:19.104Z,59.90
2023-02-05T00:41:48.335Z,59.31
2023-02-05T00:44:17.661Z,59.51
2023-02-05T00:46:45.661Z,59.09
2023-02-05T00:49:13.549Z,58.97
2023-02-05T00:51:41.486Z,58.69
2023-02-05T00:54:09.323Z,58.89
2023-02-05T00:56:37.236Z,58.63
2023-02-05T00:59:05.708Z,58.23
2023-02-05T01:01:34.948Z,58.19
2023-02-05T01:04:02.831Z,58.21
2023-02-05T01:06:30.722Z,58.34
2023-02-05T01:08:58.621Z,58.04
2023-02-05T01:11:26.691Z,58.37
2023-02-05T01:13:54.624Z,58.26
2023-02-05T01:16:22.559Z,58.49
2023-02-05T01:18:52.853Z,58.62
2023-02-05T01:21:20.717Z,58.44
2023-02-05T01:23:48.561Z,58.54
2023-02-05T01:26:16.516Z,58.43
2023-02-05T01:28:45.991Z,58.63
2023-02-05T01:31:14.022Z,58.73
2023-02-05T01:33:41.875Z,59.11
2023-02-05T01:36:11.489Z,59.61
2023-02-05T01:38:39.431Z,60.37
2023-02-05T01:41:09.150Z,60.68
2023-02-05T01:43:37.138Z,61.76
2023-02-05T01:46:15.637Z,62.29
2023-02-05T01:48:47.629Z,62.03
2023-02-05T01:51:17.749Z,61.79
2023-02-05T01:53:49.340Z,61.92
2023-02-05T01:56:22.333Z,62.20
2023-02-05T01:58:54.706Z,62.08
2023-02-05T02:01:23.277Z,62.63
2023-02-05T02:03:54.566Z,63.98
2023-02-05T02:06:23.846Z,64.99
2023-02-05T02:08:51.773Z,66.18
2023-02-05T02:11:22.848Z,66.75
2023-02-05T02:13:53.937Z,67.48
2023-02-05T02:16:22.569Z,67.99
2023-02-05T02:18:51.032Z,68.83
2023-02-05T02:21:46.269Z,69.83
2023-02-05T02:24:44.048Z,70.40
2023-02-05T02:27:43.455Z,71.99
2023-02-05T02:30:18.371Z,71.87
2023-02-05T02:32:52.935Z,71.54
2023-02-05T02:35:28.487Z,71.75
2023-02-05T02:38:02.409Z,71.66
2023-02-05T02:40:37.046Z,71.12
2023-02-05T02:43:11.309Z,70.91
2023-02-05T02:45:44.926Z,71.01
2023-02-05T02:48:16.086Z,71.44
2023-02-05T02:50:48.809Z,71.03
2023-02-05T02:53:20.306Z,70.92
2023-02-05T02:55:50.261Z,70.95
2023-02-05T02:58:26.184Z,71.26
2023-02-05T03:00:56.531Z,70.62
2023-02-05T03:03:27.192Z,70.60
2023-02-05T03:05:59.293Z,70.71
2023-02-05T03:08:31.994Z,69.91
2023-02-05T03:11:03.649Z,69.28
2023-02-05T03:13:33.687Z,69.73
2023-02-05T03:16:03.682Z,69.10
2023-02-05T03:18:32.392Z,68.73
2023-02-05T03:21:04.634Z,68.15
2023-02-05T03:23:33.483Z,68.34
2023-02-05T03:26:01.508Z,68.17
2023-02-05T03:28:45.872Z,68.03
2023-02-05T03:31:21.865Z,67.72
2023-02-05T03:34:02.668Z,67.68
2023-02-05T03:36:44.284Z,67.71
2023-02-05T03:39:25.569Z,67.61
2023-02-05T03:42:08.781Z,67.24
2023-02-05T03:45:05.765Z,67.90
2023-02-05T03:47:50.298Z,67.23
2023-02-05T03:50:25.162Z,67.22
2023-02-05T03:53:07.702Z,67.30
2023-02-05T03:55:42.110Z,67.53
2023-02-05T03:58:15.372Z,67.46
2023-02-05T04:00:45.655Z,67.24
2023-02-05T04:03:16.015Z,67.82
2023-02-05T04:05:44.222Z,67.24
2023-02-05T04:08:13.210Z,67.01
2023-02-05T04:10:46.212Z,67.27
2023-02-05T04:13:14.425Z,67.04
2023-02-05T04:15:45.609Z,66.33
2023-02-05T04:18:16.796Z,66.10
2023-02-05T04:20:46.485Z,65.92
2023-02-05T04:23:17.036Z,65.93
2023-02-05T04:25:46.010Z,65.44
2023-02-05T04:28:18.786Z,65.65
2023-02-05T04:30:48.427Z,66.00
2023-02-05T04:33:17.246Z,65.64
2023-02-05T04:35:45.369Z,66.36
2023-02-05T04:38:14.023Z,67.50
2023-02-05T04:40:42.086Z,68.75
2023-02-05T04:43:09.946Z,71.33
2023-02-05T04:45:37.877Z,72.84
2023-02-05T04:48:07.433Z,74.54
2023-02-05T04:50:35.354Z,76.20
2023-02-05T04:53:03.301Z,76.94
2023-02-05T04:55:31.676Z,78.01
2023-02-05T04:58:00.187Z,79.28
2023-02-05T05:00:28.245Z,79.63
2023-02-05T05:02:56.074Z,79.99
2023-02-05T05:05:25.257Z,80.95
2023-02-05T05:07:53.200Z,81.49
2023-02-05T05:10:21.236Z,81.30
2023-02-05T05:12:49.013Z,81.48
2023-02-05T05:15:16.910Z,81.69
2023-02-05T05:17:44.723Z,81.82
2023-02-05T05:20:12.885Z,82.57
2023-02-05T05:22:42.098Z,81.92
2023-02-05T05:25:10.359Z,82.11
2023-02-05T05:27:38.160Z,81.98
2023-02-05T05:30:06.767Z,81.95
2023-02-05T05:32:34.656Z,81.73
2023-02-05T05:35:02.578Z,82.28
2023-02-05T05:37:30.409Z,82.32
2023-02-05T05:40:16.998Z,81.65
2023-02-05T05:43:02.303Z,81.34
2023-02-05T05:45:30.441Z,80.88
2023-02-05T05:47:58.351Z,81.21
2023-02-05T05:50:26.197Z,81.36
2023-02-05T05:52:54.042Z,81.43
2023-02-05T05:55:23.296Z,81.49
2023-02-05T05:57:51.130Z,81.52
2023-02-05T06:00:19.738Z,81.63
2023-02-05T06:02:47.651Z,81.95
2023-02-05T06:05:15.602Z,81.61
2023-02-05T06:07:43.409Z,80.92
2023-02-05T06:10:11.376Z,81.92
2023-02-05T06:12:40.572Z,82.04
2023-02-05T06:15:09.129Z,81.93
2023-02-05T06:17:37.059Z,81.73
2023-02-05T06:20:05.603Z,81.42
2023-02-05T06:22:33.576Z,80.93
2023-02-05T06:25:02.213Z,80.80
2023-02-05T06:27:30.063Z,79.88
2023-02-05T06:29:59.389Z,79.44
2023-02-05T06:32:27.262Z,79.60
2023-02-05T06:34:55.067Z,78.76
2023-02-05T06:37:34.212Z,78.66
2023-02-05T06:40:15.699Z,78.80
2023-02-05T06:42:43.821Z,78.08
2023-02-05T06:45:13.054Z,78.30
2023-02-05T06:47:40.985Z,77.85
2023-02-05T06:50:09.677Z,77.81
2023-02-05T06:52:37.780Z,78.03
2023-02-05T06:55:06.275Z,76.55
2023-02-05T06:57:34.309Z,75.80
2023-02-05T07:00:02.210Z,75.45
2023-02-05T07:02:31.838Z,74.56
2023-02-05T07:04:59.718Z,74.04
2023-02-05T07:07:28.243Z,73.90
2023-02-05T07:09:56.172Z,73.13
2023-02-05T07:12:24.125Z,72.87
2023-02-05T07:14:51.961Z,72.72
2023-02-05T07:17:20.872Z,72.50
2023-02-05T07:19:50.152Z,72.98
2023-02-05T07:22:17.996Z,72.30
2023-02-05T07:24:45.833Z,71.90
2023-02-05T07:27:13.661Z,71.24
2023-02-05T07:29:41.549Z,71.70
2023-02-05T07:32:09.605Z,71.13
2023-02-05T07:34:37.823Z,70.84
2023-02-05T07:37:07.103Z,70.51
2023-02-05T07:39:34.937Z,70.25
2023-02-05T07:42:02.811Z,70.26
2023-02-05T07:44:38.641Z,70.49
2023-02-05T07:47:06.706Z,70.40
2023-02-05T07:49:34.586Z,70.65
2023-02-05T07:52:02.534Z,70.05
2023-02-05T07:54:31.788Z,69.49
2023-02-05T07:57:00.639Z,69.63
2023-02-05T07:59:28.942Z,68.44
2023-02-05T08:01:56.762Z,68.56
2023-02-05T08:04:24.685Z,68.53
2023-02-05T08:06:52.618Z,67.67
2023-02-05T08:09:20.450Z,67.36
2023-02-05T08:11:49.621Z,67.54
2023-02-05T08:14:17.506Z,68.14
2023-02-05T08:16:45.324Z,67.45
2023-02-05T08:19:16.175Z,66.80
2023-02-05T08:21:44.390Z,66.69
2023-02-05T08:24:12.700Z,66.40
2023-02-05T08:26:40.687Z,66.09
2023-02-05T08:29:10.423Z,66.24
2023-02-05T08:31:38.787Z,65.41
2023-02-05T08:34:06.716Z,66.10
2023-02-05T08:36:34.560Z,65.61
2023-02-05T08:39:02.438Z,65.32
2023-02-05T08:41:30.249Z,65.36
2023-02-05T08:43:58.211Z,64.87
2023-02-05T08:46:33.897Z,64.91
2023-02-05T08:49:11.677Z,64.74
2023-02-05T08:51:39.602Z,64.06
2023-02-05T08:54:12.974Z,63.37
2023-02-05T08:56:41.207Z,62.57
2023-02-05T08:59:09.455Z,62.53
2023-02-05T09:01:40.905Z,61.86
2023-02-05T09:04:09.393Z,62.02
2023-02-05T09:06:37.229Z,60.53
2023-02-05T09:09:05.164Z,61.01
2023-02-05T09:11:33.002Z,61.04
2023-02-05T09:14:00.997Z,61.08
2023-02-05T09:16:29.934Z,60.69
2023-02-05T09:19:00.927Z,60.70
2023-02-05T09:21:29.122Z,59.96
2023-02-05T09:23:58.219Z,59.42
2023-02-05T09:26:26.222Z,60.16
2023-02-05T09:28:54.269Z,59.55
2023-02-05T09:31:23.469Z,59.92
2023-02-05T09:33:51.447Z,59.83
2023-02-05T09:36:22.906Z,58.54
2023-02-05T09:39:01.986Z,58.01
2023-02-05T09:41:38.097Z,58.46
2023-02-05T09:44:14.354Z,58.58
2023-02-05T09:46:50.071Z,57.71
2023-02-05T09:49:20.582Z,55.99
2023-02-05T09:51:54.011Z,56.82
2023-02-05T09:54:26.128Z,56.51
2023-02-05T09:56:56.753Z,55.83
2023-02-05T09:59:26.884Z,56.02
2023-02-05T10:01:58.684Z,56.47
2023-02-05T10:04:27.425Z,56.26
2023-02-05T10:07:17.660Z,56.53
2023-02-05T10:09:59.844Z,55.57
2023-02-05T10:12:42.628Z,54.50
2023-02-05T10:15:23.638Z,54.26
2023-02-05T10:18:05.470Z,54.23
2023-02-05T10:20:53.279Z,54.05
2023-02-05T10:23:40.422Z,54.92
2023-02-05T10:26:12.053Z,54.95
2023-02-05T10:29:18.000Z,55.40
2023-02-05T10:31:56.566Z,54.14
2023-02-05T10:34:38.418Z,54.03
2023-02-05T10:37:11.402Z,54.12
2023-02-05T10:39:40.826Z,54.16
2023-02-05T10:42:27.642Z,53.81
2023-02-05T10:45:04.522Z,54.23
2023-02-05T10:47:50.721Z,53.60
2023-02-05T10:50:25.644Z,54.04
2023-02-05T10:52:53.753Z,54.19
2023-02-05T10:55:23.035Z,53.94
2023-02-05T10:57:51.051Z,54.86
2023-02-05T11:00:21.489Z,55.09
2023-02-05T11:02:52.070Z,53.76
2023-02-05T11:05:25.562Z,53.14
2023-02-05T11:07:54.865Z,53.59
2023-02-05T11:10:26.797Z,54.40
2023-02-05T11:12:57.517Z,54.33
2023-02-05T11:15:28.745Z,54.18
2023-02-05T11:18:00.186Z,54.58
2023-02-05T11:20:33.908Z,53.96
2023-02-05T11:23:15.312Z,53.36
2023-02-05T11:25:52.761Z,52.83
2023-02-05T11:28:25.036Z,52.46
2023-02-05T11:30:53.482Z,53.45
2023-02-05T11:33:32.409Z,53.31
2023-02-05T11:36:04.067Z,53.07
2023-02-05T11:38:36.285Z,53.06
2023-02-05T11:41:09.325Z,53.77
2023-02-05T11:43:39.806Z,53.40
2023-02-05T11:46:10.682Z,53.58
2023-02-05T11:48:41.956Z,53.34
2023-02-05T11:51:12.765Z,54.06
2023-02-05T11:53:55.147Z,53.33
2023-02-05T11:56:26.278Z,53.46
2023-02-05T11:59:00.884Z,54.24
2023-02-05T12:01:33.766Z,54.75
2023-02-05T12:04:03.220Z,54.27
2023-02-05T12:06:36.418Z,53.46
2023-02-05T12:09:04.646Z,53.11
2023-02-05T12:12:03.856Z,53.22
2023-02-05T12:14:42.947Z,54.21
2023-02-05T12:17:33.335Z,54.94
2023-02-05T12:20:11.131Z,53.41
2023-02-05T12:22:56.474Z,51.87
2023-02-05T12:25:29.908Z,52.30
2023-02-05T12:28:13.466Z,52.87
2023-02-05T12:30:52.431Z,52.26
2023-02-05T12:33:37.434Z,52.43
2023-02-05T12:36:22.970Z,52.92
2023-02-05T12:39:00.885Z,52.01
2023-02-05T12:41:37.628Z,51.80
2023-02-05T12:44:16.789Z,51.65
2023-02-05T12:46:56.214Z,51.12
2023-02-05T12:49:43.483Z,50.34
2023-02-05T12:52:31.855Z,50.77
2023-02-05T12:55:18.538Z,51.33
2023-02-05T12:57:51.810Z,51.04
2023-02-05T13:00:25.646Z,51.47
2023-02-05T13:03:01.784Z,51.24
2023-02-05T13:05:34.170Z,50.76
2023-02-05T13:08:06.844Z,50.55
2023-02-05T13:10:43.037Z,50.48
2023-02-05T13:13:15.598Z,50.18
2023-02-05T13:15:49.332Z,49.70
2023-02-05T13:18:22.620Z,48.97
2023-02-05T13:21:13.562Z,49.19
2023-02-05T13:24:02.018Z,49.50
2023-02-05T13:26:51.478Z,49.61
2023-02-05T13:29:22.821Z,49.70
2023-02-05T13:31:56.992Z,49.09
2023-02-05T13:34:26.028Z,49.66
2023-02-05T13:37:18.275Z,48.42
2023-02-05T13:40:11.733Z,48.24
2023-02-05T13:43:28.416Z,48.15
2023-02-05T13:46:19.166Z,47.90
2023-02-05T13:49:16.885Z,47.86
2023-02-05T13:52:11.577Z,47.53
2023-02-05T13:55:08.665Z,47.33
2023-02-05T13:58:09.362Z,47.77
2023-02-05T14:00:39.343Z,48.06
2023-02-05T14:03:09.605Z,47.72
2023-02-05T14:05:40.375Z,48.02
2023-02-05T14:08:23.102Z,47.75
2023-02-05T14:11:00.242Z,47.16
2023-02-05T14:13:32.676Z,47.09
2023-02-05T14:16:33.621Z,47.19
2023-02-05T14:19:17.510Z,47.87
2023-02-05T14:22:03.257Z,47.54
2023-02-05T14:24:50.034Z,47.88
2023-02-05T14:27:43.132Z,47.58
2023-02-05T14:30:49.583Z,47.68
2023-02-05T14:33:38.433Z,47.58
2023-02-05T14:36:36.218Z,47.05
2023-02-05T14:39:07.306Z,47.57
2023-02-05T14:41:50.733Z,47.66
2023-02-05T14:44:22.439Z,47.02
2023-02-05T14:47:05.608Z,47.30
2023-02-05T14:49:42.563Z,47.14
2023-02-05T14:52:26.820Z,46.94
2023-02-05T14:55:00.125Z,47.64
2023-02-05T14:57:39.600Z,47.71
2023-02-05T15:00:22.796Z,47.19
2023-02-05T15:03:21.699Z,47.64
2023-02-05T15:05:54.260Z,47.69
2023-02-05T15:08:28.407Z,47.29
2023-02-05T15:11:05.840Z,47.38
2023-02-05T15:13:35.512Z,47.58
2023-02-05T15:16:22.192Z,47.55
2023-02-05T15:18:52.812Z,47.54
2023-02-05T15:21:28.097Z,48.01
2023-02-05T15:24:02.203Z,48.02
2023-02-05T15:26:42.836Z,48.53
2023-02-05T15:29:17.559Z,48.62
2023-02-05T15:31:49.382Z,48.42
2023-02-05T15:34:29.574Z,49.34
2023-02-05T15:37:04.097Z,49.80
2023-02-05T15:39:41.038Z,50.54
2023-02-05T15:42:16.696Z,50.49
2023-02-05T15:44:46.287Z,50.93
2023-02-05T15:47:20.277Z,51.19
2023-02-05T15:49:51.643Z,51.38
2023-02-05T15:52:23.009Z,51.92
2023-02-05T15:54:52.901Z,52.12
2023-02-05T15:57:23.880Z,52.83
2023-02-05T15:59:55.178Z,53.26
2023-02-05T16:02:25.940Z,53.09
2023-02-05T16:04:57.407Z,53.81
2023-02-05T16:07:26.812Z,54.11
2023-02-05T16:09:57.116Z,53.91
2023-02-05T16:12:25.794Z,53.89
2023-02-05T16:15:02.910Z,54.35
2023-02-05T16:17:38.979Z,53.76
2023-02-05T16:20:29.192Z,54.49
2023-02-05T16:23:00.687Z,54.15
2023-02-05T16:25:38.055Z,54.27
2023-02-05T16:28:13.230Z,54.29
2023-02-05T16:30:44.062Z,54.56
2023-02-05T16:33:26.447Z,55.27
2023-02-05T16:35:55.181Z,55.13
2023-02-05T16:38:24.193Z,55.85
2023-02-05T16:40:55.519Z,55.63
2023-02-05T16:43:33.009Z,55.51
2023-02-05T16:46:29.622Z,55.75
2023-02-05T16:48:59.946Z,55.62
2023-02-05T16:51:52.432Z,55.61
2023-02-05T16:54:29.229Z,54.92
2023-02-05T16:57:01.944Z,55.23
2023-02-05T16:59:32.833Z,54.98
2023-02-05T17:02:03.274Z,55.29
2023-02-05T17:04:34.627Z,55.02
2023-02-05T17:07:05.492Z,55.74
2023-02-05T17:09:36.695Z,55.67
2023-02-05T17:12:36.425Z,55.40
2023-02-05T17:15:21.003Z,55.52
2023-02-05T17:17:53.637Z,55.24
2023-02-05T17:20:24.686Z,55.90
2023-02-05T17:23:13.154Z,55.68
2023-02-05T17:25:44.300Z,55.12
2023-02-05T17:28:16.806Z,55.77
2023-02-05T17:30:46.814Z,55.45
2023-02-05T17:33:20.743Z,56.31
2023-02-05T17:35:48.964Z,56.01
2023-02-05T17:38:17.842Z,55.88
2023-02-05T17:40:45.726Z,56.17
2023-02-05T17:43:13.742Z,55.66
2023-02-05T17:45:44.124Z,55.82
2023-02-05T17:48:12.657Z,55.83
2023-02-05T17:50:42.006Z,55.97
2023-02-05T17:53:13.992Z,55.96
2023-02-05T17:55:41.888Z,56.25
2023-02-05T17:58:09.785Z,55.94
2023-02-05T18:00:37.663Z,55.36
2023-02-05T18:03:05.583Z,55.90
2023-02-05T18:05:34.133Z,56.18
2023-02-05T18:08:03.593Z,55.66
2023-02-05T18:10:32.687Z,55.76
2023-02-05T18:13:00.746Z,56.08
2023-02-05T18:15:29.538Z,55.98
2023-02-05T18:17:57.704Z,55.32
2023-02-05T18:20:25.630Z,55.36
2023-02-05T18:22:53.613Z,55.74
2023-02-05T18:25:22.808Z,55.19
2023-02-05T18:27:50.700Z,55.63
2023-02-05T18:30:18.953Z,55.74
2023-02-05T18:32:46.920Z,55.99
2023-02-05T18:35:15.434Z,55.81
2023-02-05T18:37:43.886Z,56.19
2023-02-05T18:40:13.619Z,56.38
2023-02-05T18:42:46.928Z,56.68
2023-02-05T18:45:14.869Z,56.79
2023-02-05T18:47:42.754Z,56.44
2023-02-05T18:50:10.929Z,57.01
2023-02-05T18:52:38.871Z,57.10
2023-02-05T18:55:07.790Z,56.17
2023-02-05T18:57:35.680Z,56.49
2023-02-05T19:00:05.812Z,56.51
2023-02-05T19:02:35.171Z,57.45
2023-02-05T19:05:03.320Z,56.91
2023-02-05T19:07:31.228Z,57.25
2023-02-05T19:09:59.389Z,56.92
2023-02-05T19:12:27.316Z,56.94
2023-02-05T19:14:55.220Z,57.27
2023-02-05T19:17:27.296Z,56.85
2023-02-05T19:19:55.688Z,57.00
2023-02-05T19:22:23.543Z,56.84
2023-02-05T19:24:51.515Z,57.41
2023-02-05T19:27:19.734Z,57.15
2023-02-05T19:29:47.876Z,57.30
2023-02-05T19:32:15.798Z,57.69
2023-02-05T19:34:46.493Z,57.38
2023-02-05T19:37:14.420Z,57.57
2023-02-05T19:39:42.245Z,57.31
2023-02-05T19:42:10.140Z,57.31
2023-02-05T19:44:38.080Z,56.95
2023-02-05T19:47:09.895Z,57.02
2023-02-05T19:49:37.775Z,56.73
2023-02-05T19:52:08.447Z,57.48
2023-02-05T19:54:36.450Z,57.24
2023-02-05T19:57:04.630Z,57.50
2023-02-05T19:59:32.502Z,57.41
2023-02-05T20:02:00.466Z,57.74
2023-02-05T20:04:30.038Z,57.59
2023-02-05T20:06:59.836Z,57.49
2023-02-05T20:09:31.808Z,57.77
2023-02-05T20:11:59.718Z,57.73
2023-02-05T20:14:27.569Z,57.67
2023-02-05T20:16:55.449Z,58.05
2023-02-05T20:19:23.334Z,58.08
2023-02-05T20:21:52.265Z,57.87
2023-02-05T20:24:20.107Z,57.64
2023-02-05T20:26:49.363Z,57.29
2023-02-05T20:29:35.166Z,57.15
2023-02-05T20:32:03.048Z,57.20
2023-02-05T20:34:34.032Z,57.37
2023-02-05T20:37:06.270Z,57.09
2023-02-05T20:39:38.507Z,56.99
2023-02-05T20:42:07.944Z,57.16
2023-02-05T20:44:36.989Z,57.29
2023-02-05T20:47:07.279Z,57.57
2023-02-05T20:49:35.741Z,57.18
2023-02-05T20:52:03.746Z,56.96
2023-02-05T20:54:31.679Z,56.97
2023-02-05T20:57:00.061Z,57.23
2023-02-05T20:59:31.398Z,56.90
2023-02-05T21:01:59.413Z,56.62
2023-02-05T21:04:28.267Z,57.46
2023-02-05T21:06:56.173Z,56.74
2023-02-05T21:09:24.210Z,57.17
2023-02-05T21:11:55.267Z,57.15
2023-02-05T21:14:23.670Z,56.99
2023-02-05T21:16:52.867Z,57.34
2023-02-05T21:19:20.909Z,57.13
2023-02-05T21:21:49.759Z,57.29
2023-02-05T21:24:18.085Z,57.14
2023-02-05T21:26:47.609Z,57.38
2023-02-05T21:29:17.640Z,57.26
2023-02-05T21:31:48.093Z,57.31
2023-02-05T21:34:21.638Z,57.22
2023-02-05T21:36:50.241Z,57.43
2023-02-05T21:39:20.144Z,57.15
2023-02-05T21:41:50.415Z,57.35
2023-02-05T21:44:18.468Z,57.65
2023-02-05T21:46:46.431Z,57.77
2023-02-05T21:49:14.497Z,57.22
2023-02-05T21:51:43.764Z,57.16
2023-02-05T21:54:12.581Z,57.52
2023-02-05T21:56:43.228Z,57.83
2023-02-05T21:59:11.657Z,57.41
2023-02-05T22:01:40.177Z,57.27
2023-02-05T22:04:10.453Z,57.51
2023-02-05T22:06:38.659Z,57.51
2023-02-05T22:09:09.893Z,57.71
2023-02-05T22:11:39.297Z,57.29
2023-02-05T22:14:08.706Z,57.46
2023-02-05T22:16:37.637Z,57.27
2023-02-05T22:19:06.335Z,57.28
2023-02-05T22:21:36.712Z,56.85
2023-02-05T22:24:05.950Z,57.20
2023-02-05T22:26:37.391Z,57.17
2023-02-05T22:29:07.381Z,56.77
2023-02-05T22:31:36.210Z,57.44
2023-02-05T22:34:04.289Z,57.07
2023-02-05T22:36:33.778Z,57.64
2023-02-05T22:39:02.685Z,57.73
2023-02-05T22:41:33.526Z,57.46
2023-02-05T22:44:03.993Z,57.18
2023-02-05T22:46:33.956Z,57.92
2023-02-05T22:49:03.531Z,57.81
2023-02-05T22:51:33.774Z,58.16
2023-02-05T22:54:02.020Z,58.31
2023-02-05T22:56:30.060Z,58.26
2023-02-05T22:58:59.729Z,58.51
2023-02-05T23:01:33.060Z,58.71
2023-02-05T23:04:08.510Z,59.13
2023-02-05T23:06:38.405Z,58.60
2023-02-05T23:09:08.772Z,59.20
2023-02-05T23:11:37.283Z,59.32
2023-02-05T23:14:06.602Z,59.72
2023-02-05T23:16:37.964Z,59.61
2023-02-05T23:19:09.808Z,59.21
2023-02-05T23:21:38.757Z,59.08
2023-02-05T23:24:07.109Z,59.41
2023-02-05T23:26:38.478Z,59.53
2023-02-05T23:29:06.474Z,59.42
2023-02-05T23:31:35.843Z,59.53
2023-02-05T23:34:04.059Z,59.75
2023-02-05T23:36:32.020Z,59.33
2023-02-05T23:38:59.983Z,58.70
2023-02-05T23:41:39.739Z,58.70
2023-02-05T23:44:12.621Z,59.21
2023-02-05T23:46:43.129Z,59.34
2023-02-05T23:49:12.024Z,59.31
2023-02-05T23:51:40.153Z,59.23
2023-02-05T23:54:09.598Z,59.07
2023-02-05T23:56:37.515Z,59.25
2023-02-05T23:59:06.640Z,58.76
